Time;durP1;ratioP1;P1;durP2;ratioP2;P2;SDS_P1;SDS_P2;PMS_P1;PMS_P2;Temp;Humidity;BMP_temperature;BMP_pressure;BME280_temperature;BME280_humidity;BME280_pressure;Samples;Min_cycle;Max_cycle;Signal;HPM_P1;HPM_P2
2023/08/26 00:01:56;;;;;;;0.00;0.00;;;;;;;16.47;100.00;100877.50;5041662;28;20056;-48
2023/08/26 00:04:21;;;;;;;0.00;0.00;;;;;;;16.48;100.00;100881.88;5070965;28;20020;-40
2023/08/26 00:06:47;;;;;;;0.00;0.00;;;;;;;16.43;100.00;100882.56;5070974;28;20482;-38
2023/08/26 00:09:13;;;;;;;0.00;0.00;;;;;;;16.37;100.00;100880.72;5090051;28;20051;-42
2023/08/26 00:11:38;;;;;;;0.00;0.00;;;;;;;16.27;100.00;100874.09;5079618;28;20032;-48
2023/08/26 00:14:04;;;;;;;0.00;0.00;;;;;;;16.23;100.00;100879.13;5069970;28;20025;-49
2023/08/26 00:16:29;;;;;;;0.00;0.00;;;;;;;16.26;100.00;100886.84;5069506;28;20507;-47
2023/08/26 00:18:59;;;;;;;0.00;0.00;;;;;;;16.25;100.00;100890.63;5070768;28;20482;-45
2023/08/26 00:21:25;;;;;;;0.00;0.00;;;;;;;16.30;100.00;100893.53;5054328;28;20029;-45
2023/08/26 00:23:50;;;;;;;0.00;0.00;;;;;;;16.27;100.00;100893.09;5074243;28;20436;-44
2023/08/26 00:26:19;;;;;;;0.00;0.00;;;;;;;16.33;100.00;100890.38;5071215;28;20020;-44
2023/08/26 00:28:44;;;;;;;0.00;0.00;;;;;;;16.33;100.00;100898.50;5077102;28;20028;-44
2023/08/26 00:31:10;;;;;;;0.00;0.00;;;;;;;16.35;100.00;100896.41;5070447;28;20543;-46
2023/08/26 00:33:35;;;;;;;0.00;0.00;;;;;;;16.33;100.00;100884.09;5070140;28;20025;-47
2023/08/26 00:36:01;;;;;;;0.00;0.00;;;;;;;16.24;100.00;100880.78;5069880;28;20046;-45
2023/08/26 00:38:27;;;;;;;0.00;0.00;;;;;;;16.19;100.00;100872.47;5070056;28;20241;-45
2023/08/26 00:40:53;;;;;;;0.00;0.00;;;;;;;16.15;100.00;100873.97;5069918;28;20069;-46
2023/08/26 00:43:19;;;;;;;0.00;0.00;;;;;;;16.16;100.00;100870.19;5070416;28;20032;-46
2023/08/26 00:45:45;;;;;;;0.00;0.00;;;;;;;16.02;100.00;100870.28;5070776;28;20033;-46
2023/08/26 00:48:12;;;;;;;0.00;0.00;;;;;;;15.94;100.00;100853.41;5073454;28;20490;-45
2023/08/26 00:50:42;;;;;;;0.00;0.00;;;;;;;15.98;100.00;100855.50;5073594;28;20639;-42
2023/08/26 00:53:09;;;;;;;0.00;0.00;;;;;;;15.86;100.00;100846.34;5073422;28;20029;-42
2023/08/26 00:55:39;;;;;;;0.00;0.00;;;;;;;15.87;100.00;100845.28;5073564;28;20459;-46
2023/08/26 00:58:05;;;;;;;0.00;0.00;;;;;;;15.88;100.00;100849.69;5073585;28;20301;-46
2023/08/26 01:00:35;;;;;;;0.00;0.00;;;;;;;15.82;100.00;100844.28;5072695;28;20071;-46
2023/08/26 01:03:01;;;;;;;0.00;0.00;;;;;;;15.81;100.00;100846.16;5073562;28;20028;-44
2023/08/26 01:05:28;;;;;;;0.00;0.00;;;;;;;15.76;100.00;100843.28;5055073;28;20047;-46
2023/08/26 01:07:54;;;;;;;0.00;0.00;;;;;;;15.75;100.00;100841.63;5073483;28;20059;-46
2023/08/26 01:10:43;;;;;;;0.00;0.00;;;;;;;15.56;100.00;100838.75;5072797;28;20028;-48
2023/08/26 01:13:11;;;;;;;0.00;0.00;;;;;;;15.47;100.00;100836.47;5073398;28;20345;-47
2023/08/26 01:15:40;;;;;;;0.00;0.00;;;;;;;15.40;100.00;100839.19;5062747;28;20028;-49
2023/08/26 01:18:06;;;;;;;0.00;0.00;;;;;;;15.27;100.00;100837.38;5055117;28;20445;-49
2023/08/26 01:20:33;;;;;;;0.00;0.00;;;;;;;15.23;100.00;100838.03;5067176;28;20024;-46
2023/08/26 01:22:59;;;;;;;0.00;0.00;;;;;;;15.23;100.00;100848.88;5073573;28;20085;-49
2023/08/26 01:25:25;;;;;;;0.00;0.00;;;;;;;15.28;100.00;100843.63;5075892;28;20033;-46
2023/08/26 01:27:50;;;;;;;0.00;0.00;;;;;;;15.25;100.00;100850.31;5076886;28;20497;-46
2023/08/26 01:30:16;;;;;;;0.00;0.00;;;;;;;15.28;100.00;100862.63;5076695;28;20025;-46
2023/08/26 01:32:58;;;;;;;0.00;0.00;;;;;;;15.31;100.00;100856.75;5057823;28;20025;-44
2023/08/26 01:35:36;;;;;;;0.08;0.00;;;;;;;15.34;100.00;100867.19;5056952;28;20358;-46
2023/08/26 01:38:01;;;;;;;0.00;0.00;;;;;;;15.34;100.00;100869.91;5074146;28;20040;-37
2023/08/26 01:40:27;;;;;;;0.00;0.00;;;;;;;15.23;100.00;100876.81;5060979;28;20043;-38
2023/08/26 01:42:53;;;;;;;0.00;0.00;;;;;;;15.11;100.00;100860.38;5066689;28;20036;-37
2023/08/26 01:45:19;;;;;;;0.00;0.00;;;;;;;15.07;100.00;100875.38;5055571;28;20043;-40
2023/08/26 01:47:44;;;;;;;0.00;0.00;;;;;;;15.01;100.00;100884.34;5078799;28;20032;-39
2023/08/26 01:50:10;;;;;;;0.20;0.10;;;;;;;14.98;100.00;100890.19;5094573;28;20036;-36
2023/08/26 01:52:35;;;;;;;0.00;0.00;;;;;;;14.90;100.00;100893.97;5070791;28;20467;-41
2023/08/26 01:55:01;;;;;;;0.00;0.00;;;;;;;14.78;100.00;100905.63;5086374;28;20055;-40
2023/08/26 01:57:26;;;;;;;0.00;0.00;;;;;;;14.74;100.00;100882.69;5074154;28;20028;-37
2023/08/26 01:59:51;;;;;;;0.00;0.00;;;;;;;14.61;100.00;100873.53;5092310;28;20039;-40
2023/08/26 02:02:17;;;;;;;0.00;0.00;;;;;;;14.59;100.00;100872.91;5090938;28;20126;-43
2023/08/26 02:04:42;;;;;;;0.00;0.00;;;;;;;14.57;100.00;100885.81;5079781;28;20036;-45
2023/08/26 02:07:07;;;;;;;0.00;0.00;;;;;;;14.63;100.00;100881.44;5071527;28;20024;-47
2023/08/26 02:09:33;;;;;;;0.00;0.00;;;;;;;14.62;100.00;100886.03;5072237;28;20099;-49
2023/08/26 02:11:59;;;;;;;0.00;0.00;;;;;;;14.64;100.00;100880.38;5071613;28;20078;-43
2023/08/26 02:14:24;;;;;;;0.00;0.00;;;;;;;14.69;100.00;100897.72;5080379;28;20078;-48
2023/08/26 02:16:50;;;;;;;0.00;0.00;;;;;;;14.76;100.00;100907.69;5078195;28;20054;-46
2023/08/26 02:19:15;;;;;;;0.00;0.00;;;;;;;14.80;100.00;100909.78;5088084;28;20028;-42
2023/08/26 02:21:40;;;;;;;0.00;0.00;;;;;;;14.85;100.00;100907.28;5082658;28;20439;-48
2023/08/26 02:24:07;;;;;;;0.00;0.00;;;;;;;14.90;100.00;100909.34;5080828;28;20044;-48
2023/08/26 02:26:32;;;;;;;0.00;0.00;;;;;;;14.95;100.00;100900.59;5060487;28;20063;-46
2023/08/26 02:28:57;;;;;;;0.00;0.00;;;;;;;14.97;100.00;100902.06;5071850;28;20534;-46
2023/08/26 02:31:23;;;;;;;0.00;0.00;;;;;;;15.01;100.00;100899.75;5071573;28;20068;-44
2023/08/26 02:33:48;;;;;;;0.00;0.00;;;;;;;14.95;100.00;100896.00;5071625;28;20555;-44
2023/08/26 02:36:14;;;;;;;0.00;0.00;;;;;;;14.98;100.00;100901.03;5071498;28;20035;-44
2023/08/26 02:38:39;;;;;;;0.00;0.00;;;;;;;14.97;100.00;100901.25;5071435;28;20021;-43
2023/08/26 02:41:05;;;;;;;0.00;0.00;;;;;;;14.98;100.00;100901.03;5053331;28;20074;-45
2023/08/26 02:43:30;;;;;;;0.00;0.00;;;;;;;15.05;100.00;100895.59;5053072;28;20059;-45
2023/08/26 02:45:57;;;;;;;0.00;0.00;;;;;;;15.02;100.00;100888.72;5071628;28;20031;-41
2023/08/26 02:48:23;;;;;;;0.00;0.00;;;;;;;14.93;100.00;100881.88;5071378;28;20035;-43
2023/08/26 02:50:59;;;;;;;0.10;0.05;;;;;;;14.90;100.00;100898.50;5071219;28;20355;-47
2023/08/26 02:53:26;;;;;;;0.20;0.20;;;;;;;14.88;100.00;100895.22;5070900;28;20347;-36
2023/08/26 02:55:51;;;;;;;0.10;0.10;;;;;;;14.82;100.00;100887.91;5071235;28;20479;-37
2023/08/26 02:58:18;;;;;;;0.00;0.00;;;;;;;14.77;100.00;100887.69;5070602;28;20039;-39
2023/08/26 03:00:44;;;;;;;0.00;0.00;;;;;;;14.77;100.00;100898.53;5070729;28;20531;-45
2023/08/26 03:03:09;;;;;;;0.00;0.00;;;;;;;14.73;100.00;100894.56;5070928;28;20020;-41
2023/08/26 03:05:34;;;;;;;0.00;0.00;;;;;;;14.66;100.00;100900.81;5070758;28;20024;-43
2023/08/26 03:08:00;;;;;;;0.00;0.00;;;;;;;14.64;100.00;100899.34;5082838;28;20030;-44
2023/08/26 03:10:25;;;;;;;0.00;0.00;;;;;;;14.63;100.00;100903.94;5075263;28;20032;-46
2023/08/26 03:12:50;;;;;;;0.05;0.03;;;;;;;14.61;100.00;100889.78;5083914;28;20462;-42
2023/08/26 03:15:16;;;;;;;0.00;0.00;;;;;;;14.58;100.00;100901.00;5071114;28;20453;-42
2023/08/26 03:17:41;;;;;;;0.00;0.00;;;;;;;14.59;100.00;100889.16;5070995;28;20029;-45
2023/08/26 03:20:07;;;;;;;0.00;0.00;;;;;;;14.67;100.00;100896.25;5070434;28;20082;-46
2023/08/26 03:22:32;;;;;;;0.00;0.00;;;;;;;14.62;100.00;100890.63;5070274;28;20032;-46
2023/08/26 03:24:58;;;;;;;0.00;0.00;;;;;;;14.47;100.00;100888.88;5071485;28;20020;-46
2023/08/26 03:27:24;;;;;;;0.00;0.00;;;;;;;14.44;100.00;100893.88;5071985;28;20106;-49
2023/08/26 03:29:50;;;;;;;0.00;0.00;;;;;;;14.32;100.00;100890.09;5079381;28;20486;-49
2023/08/26 03:32:15;;;;;;;0.00;0.00;;;;;;;14.27;100.00;100899.69;5073876;28;20074;-49
2023/08/26 03:34:41;;;;;;;0.00;0.00;;;;;;;14.27;100.00;100899.69;5070896;28;20447;-44
2023/08/26 03:37:06;;;;;;;0.00;0.00;;;;;;;14.23;100.00;100900.31;5070649;28;20035;-45
2023/08/26 03:39:31;;;;;;;0.00;0.00;;;;;;;14.20;100.00;100898.84;5070693;28;20048;-44
2023/08/26 03:41:57;;;;;;;0.00;0.00;;;;;;;14.18;100.00;100891.97;5070707;28;20016;-45
2023/08/26 03:44:22;;;;;;;0.00;0.00;;;;;;;14.13;100.00;100899.84;5070104;28;20421;-46
2023/08/26 03:46:48;;;;;;;0.00;0.00;;;;;;;14.12;100.00;100895.50;5070554;28;20024;-48
2023/08/26 03:49:13;;;;;;;0.00;0.00;;;;;;;14.06;100.00;100891.75;5070551;28;20026;-46
2023/08/26 03:51:39;;;;;;;0.00;0.00;;;;;;;14.04;100.00;100891.09;5070731;28;20512;-47
2023/08/26 03:54:04;;;;;;;0.00;0.00;;;;;;;14.01;100.00;100891.50;5069700;28;20021;-48
2023/08/26 03:56:30;;;;;;;0.00;0.00;;;;;;;13.97;100.00;100901.06;5070858;28;20028;-45
2023/08/26 03:58:56;;;;;;;0.00;0.00;;;;;;;13.95;100.00;100895.00;5070176;28;20471;-46
2023/08/26 04:01:21;;;;;;;0.00;0.00;;;;;;;13.96;100.00;100900.22;5069980;28;20463;-44
2023/08/26 04:03:50;;;;;;;0.00;0.00;;;;;;;13.94;100.00;100899.59;5068227;28;20028;-46
2023/08/26 04:06:17;;;;;;;0.00;0.00;;;;;;;13.95;100.00;100900.41;5069828;28;20490;-44
2023/08/26 04:08:43;;;;;;;0.00;0.00;;;;;;;13.93;100.00;100903.34;5070093;28;20051;-45
2023/08/26 04:11:09;;;;;;;0.00;0.00;;;;;;;13.89;100.00;100902.06;5070500;28;20089;-45
2023/08/26 04:13:34;;;;;;;0.00;0.00;;;;;;;13.90;100.00;100909.16;5054756;28;20021;-45
2023/08/26 04:16:02;;;;;;;0.00;0.00;;;;;;;13.87;100.00;100917.66;5050069;28;20067;-43
2023/08/26 04:18:28;;;;;;;0.00;0.00;;;;;;;13.91;100.00;100910.81;5076228;28;20016;-46
2023/08/26 04:20:53;;;;;;;0.00;0.00;;;;;;;13.92;100.00;100907.06;5090992;28;20046;-45
2023/08/26 04:23:19;;;;;;;0.00;0.00;;;;;;;13.90;100.00;100914.56;5043830;28;20244;-46
2023/08/26 04:25:44;;;;;;;0.00;0.00;;;;;;;13.88;100.00;100915.81;5088340;28;20028;-43
2023/08/26 04:28:11;;;;;;;0.00;0.00;;;;;;;13.84;100.00;100910.78;5073651;28;20029;-45
2023/08/26 04:30:37;;;;;;;0.00;0.00;;;;;;;13.83;100.00;100902.88;5091819;28;20020;-43
2023/08/26 04:33:04;;;;;;;0.00;0.00;;;;;;;13.80;100.00;100906.81;5089199;28;20093;-45
2023/08/26 04:35:30;;;;;;;0.00;0.00;;;;;;;13.80;100.00;100912.25;5073862;28;20033;-47
2023/08/26 04:37:55;;;;;;;0.00;0.00;;;;;;;13.79;100.00;100907.03;5082114;28;20467;-45
2023/08/26 04:40:21;;;;;;;0.00;0.00;;;;;;;13.76;100.00;100912.84;5085408;28;20089;-46
2023/08/26 04:42:46;;;;;;;0.00;0.00;;;;;;;13.73;100.00;100908.66;5083474;28;20395;-44
2023/08/26 04:45:14;;;;;;;0.00;0.00;;;;;;;13.71;100.00;100901.78;5076672;28;20444;-45
2023/08/26 04:47:40;;;;;;;0.05;0.00;;;;;;;13.71;100.00;100909.91;5057892;28;20064;-46
2023/08/26 04:50:06;;;;;;;0.00;0.00;;;;;;;13.64;100.00;100909.88;5089979;28;20038;-49
2023/08/26 04:52:31;;;;;;;0.00;0.00;;;;;;;13.65;100.00;100908.00;5085149;28;20028;-44
2023/08/26 04:54:56;;;;;;;0.00;0.00;;;;;;;13.69;100.00;100912.81;5085190;28;20371;-43
2023/08/26 04:57:22;;;;;;;0.00;0.00;;;;;;;13.69;100.00;100914.66;5086153;28;20048;-44
2023/08/26 04:59:47;;;;;;;0.00;0.00;;;;;;;13.69;100.00;100920.94;5077417;28;20089;-47
2023/08/26 05:02:13;;;;;;;0.00;0.00;;;;;;;13.71;100.00;100920.72;5081916;28;20044;-43
2023/08/26 05:04:38;;;;;;;0.00;0.00;;;;;;;13.75;100.00;100914.72;5070909;28;20471;-46
2023/08/26 05:07:04;;;;;;;0.00;0.00;;;;;;;13.72;100.00;100925.94;5069047;28;20456;-42
2023/08/26 05:09:29;;;;;;;0.00;0.00;;;;;;;13.71;100.00;100918.84;5070427;28;20033;-46
2023/08/26 05:11:58;;;;;;;0.00;0.00;;;;;;;13.77;100.00;100926.16;5086363;28;20478;-47
2023/08/26 05:14:24;;;;;;;0.00;0.00;;;;;;;13.75;100.00;100927.41;5078228;28;20116;-43
2023/08/26 05:16:49;;;;;;;0.00;0.00;;;;;;;13.79;100.00;100923.25;5071567;28;20541;-46
2023/08/26 05:19:15;;;;;;;0.00;0.00;;;;;;;13.88;100.00;100937.47;5070433;28;20043;-47
2023/08/26 05:21:40;;;;;;;0.00;0.00;;;;;;;13.87;100.00;100933.06;5060796;28;20021;-47
2023/08/26 05:24:06;;;;;;;0.00;0.00;;;;;;;13.92;100.00;100933.28;5069258;28;20475;-43
2023/08/26 05:26:31;;;;;;;0.00;0.00;;;;;;;13.92;100.00;100936.00;5089497;28;20093;-43
2023/08/26 05:28:57;;;;;;;0.00;0.00;;;;;;;13.96;100.00;100926.47;5089758;28;20039;-44
2023/08/26 05:31:22;;;;;;;0.00;0.00;;;;;;;14.06;100.00;100926.91;5090358;28;20039;-45
2023/08/26 05:33:47;;;;;;;0.00;0.00;;;;;;;14.11;100.00;100927.13;5076687;28;20040;-48
2023/08/26 05:36:13;;;;;;;0.00;0.00;;;;;;;14.25;100.00;100917.19;5071453;28;20583;-47
2023/08/26 05:38:38;;;;;;;0.00;0.00;;;;;;;14.32;100.00;100909.06;5070654;28;20514;-45
2023/08/26 05:41:03;;;;;;;0.00;0.00;;;;;;;14.34;100.00;100901.56;5083494;28;20160;-43
2023/08/26 05:43:30;;;;;;;0.00;0.00;;;;;;;14.31;100.00;100889.28;5073019;28;20037;-46
2023/08/26 05:45:58;;;;;;;0.00;0.00;;;;;;;14.41;100.00;100899.72;5069901;28;20036;-42
2023/08/26 05:48:23;;;;;;;0.00;0.00;;;;;;;14.47;100.00;100888.88;5070035;28;20487;-46
2023/08/26 05:50:49;;;;;;;0.00;0.00;;;;;;;14.39;100.00;100880.13;5070086;28;20023;-42
2023/08/26 05:53:14;;;;;;;0.00;0.00;;;;;;;14.50;100.00;100887.63;5057365;28;20043;-46
2023/08/26 05:55:43;;;;;;;0.00;0.00;;;;;;;14.60;100.00;100881.84;5069844;28;20038;-45
2023/08/26 05:58:09;;;;;;;0.00;0.00;;;;;;;14.76;100.00;100880.59;5090580;28;20028;-44
2023/08/26 06:00:34;;;;;;;0.00;0.00;;;;;;;14.88;100.00;100868.94;5089993;28;20043;-47
2023/08/26 06:03:00;;;;;;;0.00;0.00;;;;;;;15.45;100.00;100880.06;5090105;28;20111;-50
2023/08/26 06:05:25;;;;;;;0.00;0.00;;;;;;;15.88;100.00;100849.69;5087336;28;20040;-45
2023/08/26 06:07:51;;;;;;;0.00;0.00;;;;;;;16.30;100.00;100839.19;5051507;28;20047;-50
2023/08/26 06:10:17;;;;;;;0.00;0.00;;;;;;;16.73;100.00;100829.44;5070828;28;20111;-48
2023/08/26 06:12:43;;;;;;;0.00;0.00;;;;;;;16.85;100.00;100820.38;5049678;28;20361;-46
2023/08/26 06:15:08;;;;;;;0.00;0.00;;;;;;;16.96;100.00;100817.97;5073066;28;20021;-44
2023/08/26 06:17:35;;;;;;;0.00;0.00;;;;;;;17.17;100.00;100812.09;5069853;28;20024;-47
2023/08/26 06:20:03;;;;;;;0.00;0.00;;;;;;;17.58;100.00;100823.34;5069352;28;20137;-45
2023/08/26 06:22:28;;;;;;;;;;;;;;;17.84;100.00;100811.28;5070295;28;20028;-46
2023/08/26 06:24:53;;;;;;;0.00;0.00;;;;;;;17.92;100.00;100824.59;5069284;28;20333;-44
2023/08/26 06:27:20;;;;;;;0.00;0.00;;;;;;;18.16;100.00;100829.03;5069578;28;20936;-46
2023/08/26 06:29:54;;;;;;;0.00;0.00;;;;;;;18.04;100.00;100828.19;5069880;28;20378;-45
2023/08/26 06:32:23;;;;;;;0.00;0.00;;;;;;;17.36;100.00;100837.41;5069364;28;20043;-45
2023/08/26 06:34:48;;;;;;;0.00;0.00;;;;;;;16.96;100.00;100847.88;5070076;28;20036;-45
2023/08/26 06:37:14;;;;;;;0.00;0.00;;;;;;;16.31;100.00;100857.16;5066433;28;20020;-47
2023/08/26 06:39:39;;;;;;;0.00;0.00;;;;;;;15.83;100.00;100871.22;5080669;28;20028;-45
2023/08/26 06:42:05;;;;;;;0.00;0.00;;;;;;;15.85;100.00;100879.13;5076595;28;20040;-46
2023/08/26 06:44:30;;;;;;;0.00;0.00;;;;;;;15.78;100.00;100881.88;5071010;28;20029;-46
2023/08/26 06:46:56;;;;;;;0.00;0.00;;;;;;;15.96;100.00;100873.88;5071439;28;20021;-45
2023/08/26 06:49:21;;;;;;;0.00;0.00;;;;;;;15.98;100.00;100873.63;5071696;28;20125;-46
2023/08/26 06:51:47;;;;;;;0.00;0.00;;;;;;;16.00;100.00;100872.38;5071532;28;20024;-44
2023/08/26 06:54:12;;;;;;;0.00;0.00;;;;;;;16.07;100.00;100866.91;5060717;28;20017;-44
2023/08/26 06:56:37;;;;;;;0.00;0.00;;;;;;;16.35;100.00;100862.97;5050651;28;20104;-43
2023/08/26 06:59:03;;;;;;;0.00;0.00;;;;;;;17.05;100.00;100860.94;5051234;28;20057;-45
2023/08/26 07:01:29;;;;;;;0.00;0.00;;;;;;;17.49;100.00;100847.31;5049833;28;20110;-43
2023/08/26 07:04:08;;;;;;;0.00;0.00;;;;;;;17.69;100.00;100845.19;5050582;28;20079;-43
2023/08/26 07:06:35;;;;;;;0.00;0.00;;;;;;;17.50;100.00;100852.50;5050752;28;20029;-45
2023/08/26 07:09:01;;;;;;;0.00;0.00;;;;;;;17.58;100.00;100851.38;5051115;28;20120;-45
2023/08/26 07:11:26;;;;;;;0.00;0.00;;;;;;;18.19;100.00;100852.25;5050993;28;20103;-42
2023/08/26 07:13:51;;;;;;;0.00;0.00;;;;;;;18.46;100.00;100839.06;5051145;28;20501;-43
2023/08/26 07:16:17;;;;;;;0.00;0.00;;;;;;;19.09;100.00;100832.16;5050505;28;20025;-44
2023/08/26 07:18:42;;;;;;;0.00;0.00;;;;;;;19.62;100.00;100833.00;5050955;28;20025;-44
2023/08/26 07:21:07;;;;;;;0.00;0.00;;;;;;;19.67;100.00;100828.47;5050558;28;20025;-46
2023/08/26 07:23:33;;;;;;;0.00;0.00;;;;;;;19.62;100.00;100827.53;5050870;28;20545;-45
2023/08/26 07:25:58;;;;;;;0.00;0.00;;;;;;;19.66;100.00;100829.53;5050633;28;20476;-45
2023/08/26 07:28:24;;;;;;;0.00;0.00;;;;;;;20.35;100.00;100836.81;5050498;28;20100;-45
2023/08/26 07:30:51;;;;;;;0.00;0.00;;;;;;;20.26;100.00;100832.84;5032798;28;20053;-44
2023/08/26 07:33:16;;;;;;;0.00;0.00;;;;;;;20.08;100.00;100831.16;5050589;28;20027;-44
2023/08/26 07:35:41;;;;;;;0.00;0.00;;;;;;;19.67;100.00;100830.38;5050823;28;20029;-43
2023/08/26 07:38:07;;;;;;;0.00;0.00;;;;;;;19.60;100.00;100830.50;5050497;28;20435;-43
2023/08/26 07:40:32;;;;;;;0.00;0.00;;;;;;;18.84;100.00;100841.38;5050797;28;20029;-43
2023/08/26 07:42:58;;;;;;;0.00;0.00;;;;;;;19.25;100.00;100838.78;5050632;28;20025;-46
2023/08/26 07:45:24;;;;;;;0.00;0.00;;;;;;;18.49;100.00;100841.31;5050589;28;20086;-42
2023/08/26 07:47:49;;;;;;;0.00;0.00;;;;;;;18.06;100.00;100844.28;5050353;28;20028;-44
2023/08/26 07:50:14;;;;;;;0.00;0.00;;;;;;;18.51;100.00;100850.09;5050644;28;20490;-44
2023/08/26 07:52:40;;;;;;;0.00;0.00;;;;;;;18.54;100.00;100833.28;5049672;28;20024;-46
2023/08/26 07:55:05;;;;;;;0.00;0.00;;;;;;;18.55;100.00;100845.00;5049508;28;20021;-45
2023/08/26 07:57:31;;;;;;;0.00;0.00;;;;;;;18.74;100.00;100851.19;5054097;28;20386;-46
2023/08/26 07:59:56;;;;;;;0.00;0.00;;;;;;;18.91;100.00;100846.72;5054524;28;20029;-46
2023/08/26 08:02:21;;;;;;;0.00;0.00;;;;;;;19.53;100.00;100849.72;5054451;28;20037;-44
2023/08/26 08:04:47;;;;;;;0.00;0.00;;;;;;;19.32;100.00;100850.34;5054479;28;20021;-44
2023/08/26 08:07:13;;;;;;;0.00;0.00;;;;;;;19.68;100.00;100845.69;5054655;28;20462;-46
2023/08/26 08:09:39;;;;;;;0.00;0.00;;;;;;;20.13;100.00;100839.44;5054656;28;20021;-43
2023/08/26 08:12:05;;;;;;;0.00;0.00;;;;;;;20.63;100.00;100830.50;5054784;28;20021;-46
2023/08/26 08:14:30;;;;;;;0.00;0.00;;;;;;;21.35;100.00;100834.25;5054576;28;20032;-44
2023/08/26 08:16:56;;;;;;;0.00;0.00;;;;;;;21.15;100.00;100835.66;5054269;28;20017;-43
2023/08/26 08:19:21;;;;;;;0.00;0.00;;;;;;;21.22;100.00;100836.31;5054672;28;20029;-43
2023/08/26 08:21:48;;;;;;;0.00;0.00;;;;;;;21.29;100.00;100832.53;5054056;28;20051;-44
2023/08/26 08:24:13;;;;;;;0.00;0.00;;;;;;;21.42;100.00;100835.75;5054198;28;20040;-44
2023/08/26 08:26:43;;;;;;;0.00;0.00;;;;;;;22.15;100.00;100843.72;5053838;28;20029;-44
2023/08/26 08:29:08;;;;;;;0.00;0.00;;;;;;;21.54;100.00;100857.56;5053361;28;20486;-44
2023/08/26 08:31:34;;;;;;;0.00;0.00;;;;;;;19.93;100.00;100848.94;5054078;28;20039;-44
2023/08/26 08:33:59;;;;;;;0.00;0.00;;;;;;;19.42;100.00;100855.22;5053628;28;20060;-43
2023/08/26 08:36:24;;;;;;;0.00;0.00;;;;;;;19.03;100.00;100855.72;5053758;28;20039;-44
2023/08/26 08:38:50;;;;;;;0.00;0.00;;;;;;;18.60;100.00;100869.66;5053664;28;20112;-47
2023/08/26 08:41:15;;;;;;;0.00;0.00;;;;;;;18.14;100.00;100861.16;5053816;28;20028;-44
2023/08/26 08:43:44;;;;;;;0.00;0.00;;;;;;;18.29;100.00;100866.16;5053387;28;20036;-45
2023/08/26 08:46:09;;;;;;;0.00;0.00;;;;;;;18.67;100.00;100875.84;5054027;28;20024;-47
2023/08/26 08:48:35;;;;;;;0.00;0.00;;;;;;;19.52;100.00;100877.28;5036035;28;20036;-47
2023/08/26 08:51:01;;;;;;;0.00;0.00;;;;;;;20.21;100.00;100880.03;5053837;28;20086;-46
2023/08/26 08:53:32;;;;;;;0.00;0.00;;;;;;;20.03;100.00;100872.03;5035921;28;20486;-48
2023/08/26 08:56:00;;;;;;;0.00;0.00;;;;;;;19.91;100.00;100881.13;5049025;28;20040;-45
2023/08/26 08:58:27;;;;;;;0.00;0.00;;;;;;;19.26;100.00;100873.97;5065253;28;20026;-46
2023/08/26 09:00:53;;;;;;;0.00;0.00;;;;;;;19.35;100.00;100888.09;5046333;28;20049;-49
2023/08/26 09:03:19;;;;;;;0.00;0.00;;;;;;;19.62;100.00;100882.13;5054903;28;20047;-45
2023/08/26 09:05:45;;;;;;;0.00;0.00;;;;;;;19.96;100.00;100877.66;5071143;28;20495;-47
2023/08/26 09:08:11;;;;;;;0.00;0.00;;;;;;;19.95;100.00;100879.53;5052361;28;20048;-45
2023/08/26 09:10:36;;;;;;;0.00;0.00;;;;;;;19.42;100.00;100882.50;5071313;28;20036;-46
2023/08/26 09:13:03;;;;;;;0.00;0.00;;;;;;;19.10;100.00;100882.06;5071238;28;20025;-46
2023/08/26 09:15:28;;;;;;;0.00;0.00;;;;;;;18.94;100.00;100883.59;5070513;28;20028;-47
2023/08/26 09:18:00;;;;;;;0.00;0.00;;;;;;;18.77;100.00;100894.38;5081622;28;20032;-46
2023/08/26 09:20:26;;;;;;;0.00;0.00;;;;;;;18.98;100.00;100879.31;5071221;28;20036;-48
2023/08/26 09:23:02;;;;;;;0.00;0.00;;;;;;;19.97;100.00;100881.22;5071298;28;20029;-43
2023/08/26 09:25:30;;;;;;;0.00;0.00;;;;;;;20.26;100.00;100890.25;5074540;28;20103;-46
2023/08/26 09:27:56;;;;;;;0.00;0.00;;;;;;;19.93;100.00;100887.16;5060864;28;20029;-44
2023/08/26 09:30:21;;;;;;;0.00;0.00;;;;;;;20.14;100.00;100890.28;5050991;28;20029;-44
2023/08/26 09:32:49;;;;;;;0.00;0.00;;;;;;;19.95;100.00;100882.28;5069014;28;20041;-48
2023/08/26 09:35:16;;;;;;;0.00;0.00;;;;;;;19.55;100.00;100873.22;5071909;28;20035;-48
2023/08/26 09:37:44;;;;;;;0.00;0.00;;;;;;;19.59;100.00;100882.59;5070940;28;20032;-46
2023/08/26 09:40:14;;;;;;;0.00;0.00;;;;;;;19.72;100.00;100880.47;5070713;28;20024;-48
2023/08/26 09:42:40;;;;;;;0.00;0.00;;;;;;;19.23;100.00;100881.81;5070669;28;20386;-46
2023/08/26 09:45:10;;;;;;;0.00;0.00;;;;;;;19.07;100.00;100886.94;5069794;28;20074;-46
2023/08/26 09:47:36;;;;;;;0.00;0.00;;;;;;;19.31;100.00;100884.19;5070286;28;20437;-46
2023/08/26 09:50:02;;;;;;;0.00;0.00;;;;;;;20.25;100.00;100886.69;5070040;28;20537;-47
2023/08/26 09:52:28;;;;;;;0.00;0.00;;;;;;;20.86;100.00;100881.47;5070451;28;20310;-49
2023/08/26 09:54:53;;;;;;;0.00;0.00;;;;;;;20.80;100.00;100877.81;5070460;28;20097;-44
2023/08/26 09:57:19;;;;;;;0.00;0.00;;;;;;;20.23;100.00;100883.34;5052565;28;20136;-46
2023/08/26 09:59:44;;;;;;;0.00;0.00;;;;;;;19.69;100.00;100889.13;5069930;28;20062;-46
2023/08/26 10:02:23;;;;;;;0.00;0.00;;;;;;;18.87;100.00;100886.44;5071228;28;20501;-45
2023/08/26 10:04:53;;;;;;;0.00;0.00;;;;;;;18.66;100.00;100895.97;5065499;28;20111;-47
2023/08/26 10:07:19;;;;;;;0.00;0.00;;;;;;;18.65;100.00;100905.22;5069905;28;20032;-46
2023/08/26 10:10:07;;;;;;;0.00;0.00;;;;;;;18.36;100.00;100898.75;5058545;28;20083;-45
2023/08/26 10:12:36;;;;;;;0.00;0.00;;;;;;;18.28;100.00;100888.19;5071609;28;20036;-49
2023/08/26 10:15:03;;;;;;;0.00;0.00;;;;;;;18.24;100.00;100885.09;5069197;28;20063;-44
2023/08/26 10:17:30;;;;;;;0.00;0.00;;;;;;;18.72;100.00;100889.59;5070004;28;20038;-46
2023/08/26 10:19:57;;;;;;;0.00;0.00;;;;;;;18.62;100.00;100883.91;5065857;28;20028;-46
2023/08/26 10:22:24;;;;;;;0.00;0.00;;;;;;;18.57;100.00;100890.03;5071175;28;20398;-46
2023/08/26 10:24:50;;;;;;;0.00;0.00;;;;;;;19.11;100.00;100891.91;5073790;28;20033;-45
2023/08/26 10:27:15;;;;;;;0.00;0.00;;;;;;;19.80;100.00;100900.25;5070485;28;20073;-42
2023/08/26 10:29:41;;;;;;;0.00;0.00;;;;;;;20.08;100.00;100885.78;5052494;28;20051;-42
2023/08/26 10:32:18;;;;;;;0.00;0.00;;;;;;;20.30;100.00;100877.72;5051152;28;20154;-45
2023/08/26 10:34:54;;;;;;;0.00;0.00;;;;;;;20.42;100.00;100880.41;5070153;28;21062;-45
2023/08/26 10:37:22;;;;;;;0.00;0.00;;;;;;;20.33;100.00;100869.06;5069744;28;20036;-44
2023/08/26 10:39:47;;;;;;;0.00;0.00;;;;;;;20.48;100.00;100874.75;5068919;28;20062;-45
2023/08/26 10:42:17;;;;;;;0.00;0.00;;;;;;;20.98;100.00;100870.41;5049456;28;20025;-42
2023/08/26 10:44:56;;;;;;;0.00;0.00;;;;;;;20.87;100.00;100874.91;5051154;28;20024;-44
2023/08/26 10:47:38;;;;;;;0.00;0.00;;;;;;;20.48;100.00;100872.03;5072088;28;20059;-44
2023/08/26 10:50:25;;;;;;;0.00;0.00;;;;;;;19.93;100.00;100873.50;5073713;28;20512;-46
2023/08/26 10:53:15;;;;;;;0.00;0.00;;;;;;;19.82;100.00;100870.81;5094016;28;20043;-47
2023/08/26 10:55:40;;;;;;;0.00;0.00;;;;;;;20.27;100.00;100873.56;5085872;28;20291;-43
2023/08/26 10:58:17;;;;;;;0.00;0.00;;;;;;;20.76;100.00;100882.13;5052820;28;20025;-43
2023/08/26 11:00:46;;;;;;;0.00;0.00;;;;;;;20.73;100.00;100884.53;5051723;28;20139;-46
2023/08/26 11:03:13;;;;;;;0.00;0.00;;;;;;;20.77;100.00;100886.53;5052337;28;20105;-46
2023/08/26 11:05:41;;;;;;;0.00;0.00;;;;;;;20.30;100.00;100878.56;5051725;28;20437;-45
2023/08/26 11:08:07;;;;;;;0.00;0.00;;;;;;;20.02;100.00;100884.88;5033698;28;20021;-44
2023/08/26 11:10:40;;;;;;;0.00;0.00;;;;;;;19.95;100.00;100875.97;5051296;28;20025;-45
2023/08/26 11:13:06;;;;;;;0.00;0.00;;;;;;;19.87;100.00;100882.66;5051543;28;20025;-42
2023/08/26 11:15:36;;;;;;;0.00;0.00;;;;;;;20.64;100.00;100878.63;5051760;28;20028;-43